Observation data for Northfield on 12/13/2019      Previous  Date       Current Mesonet Observations  Soil Data  Daily Summary Page  Observations in Plain Language
KNOR 130600Z 26004KT 02/M01 A2997 RMK A01 T00151014  RH  082%=      5-min Rain = 0
KNOR 130605Z 26004KT 01/M02 A2997 RMK A01 T00121017  RH  082%=      5-min Rain = 0
KNOR 130610Z 25005KT 01/M02 A2996 RMK A01 T00101017  RH  082%=      5-min Rain = 0
KNOR 130615Z 25005KT 01/M02 A2996 RMK A01 T00061021  RH  083%=      5-min Rain = 0
KNOR 130620Z 25005KT 00/M02 A2996 RMK A01 T00021021  RH  085%=      5-min Rain = 0
KNOR 130625Z 24005KT M00/M02 A2995 RMK A01 T10011022  RH  086%=      5-min Rain = 0
KNOR 130630Z 23006KT M00/M02 A2995 RMK A01 T10011021  RH  087%=      5-min Rain = 0
KNOR 130635Z 23005KT M00/M02 A2995 RMK A01 T10021022  RH  087%=      5-min Rain = 0
KNOR 130640Z 24005KT M00/M02 A2995 RMK A01 T10021021  RH  088%=      5-min Rain = 0
KNOR 130645Z 24005KT M00/M02 A2995 RMK A01 T10011021  RH  087%=      5-min Rain = 0
KNOR 130650Z 25004KT 00/M02 A2994 RMK A01 T00021018  RH  087%=      5-min Rain = 0
KNOR 130655Z 26004KT 01/M02 A2995 RMK A01 T00061017  RH  085%=      5-min Rain = 0
KNOR 130700Z 27003KT 01/M02 A2995 RMK A01 T00101015  RH  084%=      5-min Rain = 0
KNOR 130705Z 26004KT 01/M02 A2995 RMK A01 T00141015  RH  082%=      5-min Rain = 0
KNOR 130710Z 26004KT 01/M02 A2994 RMK A01 T00121018  RH  081%=      5-min Rain = 0
KNOR 130715Z 26003KT 01/M02 A2994 RMK A01 T00101019  RH  082%=      5-min Rain = 0
KNOR 130720Z 27004KT 01/M02 A2994 RMK A01 T00111018  RH  081%=      5-min Rain = 0
KNOR 130725Z 26004KT 01/M02 A2994 RMK A01 T00111019  RH  081%=      5-min Rain = 0
KNOR 130730Z 25004KT 01/M02 A2993 RMK A01 T00091021  RH  081%=      5-min Rain = 0
KNOR 130735Z 26004KT 01/M02 A2994 RMK A01 T00101020  RH  081%=      5-min Rain = 0
KNOR 130740Z 26003KT 01/M02 A2994 RMK A01 T00091021  RH  081%=      5-min Rain = 0
KNOR 130745Z 27003KT 01/M02 A2994 RMK A01 T00071022  RH  081%=      5-min Rain = 0
KNOR 130750Z 28005KT 00/M02 A2994 RMK A01 T00041023  RH  083%=      5-min Rain = 0
KNOR 130755Z 27005KT M00/M03 A2994 RMK A01 T10021026  RH  084%=      5-min Rain = 0
KNOR 130800Z 27005KT M01/M03 A2994 RMK A01 T10061028  RH  086%=      5-min Rain = 0
KNOR 130805Z 27004KT M01/M03 A2994 RMK A01 T10071028  RH  087%=      5-min Rain = 0
KNOR 130810Z 28004KT M01/M03 A2994 RMK A01 T10081028  RH  087%=      5-min Rain = 0
KNOR 130815Z 29004KT M01/M03 A2994 RMK A01 T10061025  RH  088%=      5-min Rain = 0
KNOR 130820Z 30004KT M00/M02 A2994 RMK A01 T10031022  RH  087%=      5-min Rain = 0
KNOR 130825Z 29004KT M01/M03 A2994 RMK A01 T10051025  RH  087%=      5-min Rain = 0
KNOR 130830Z 30003KT M01/M03 A2994 RMK A01 T10061026  RH  087%=      5-min Rain = 0
KNOR 130835Z 31003KT M00/M02 A2993 RMK A01 T10041023  RH  088%=      5-min Rain = 0
KNOR 130840Z 30002KT M00/M02 A2993 RMK A01 T10041024  RH  087%=      5-min Rain = 0
KNOR 130845Z 30003KT M00/M02 A2993 RMK A01 T10041024  RH  087%=      5-min Rain = 0
KNOR 130850Z 29002KT M00/M03 A2992 RMK A01 T10041025  RH  086%=      5-min Rain = 0
KNOR 130855Z 29002KT M01/M03 A2993 RMK A01 T10091029  RH  087%=      5-min Rain = 0
KNOR 130900Z 30003KT M01/M03 A2993 RMK A01 T10071026  RH  088%=      5-min Rain = 0
KNOR 130905Z 30003KT M00/M03 A2993 RMK A01 T10041025  RH  087%=      5-min Rain = 0
KNOR 130910Z 29002KT M01/M03 A2993 RMK A01 T10051027  RH  086%=      5-min Rain = 0
KNOR 130915Z 25003KT M01/M03 A2993 RMK A01 T10091030  RH  086%=      5-min Rain = 0
KNOR 130920Z 24004KT M01/M03 A2993 RMK A01 T10111031  RH  087%=      5-min Rain = 0
KNOR 130925Z 26004KT M01/M03 A2992 RMK A01 T10081027  RH  087%=      5-min Rain = 0
KNOR 130930Z 25004KT M01/M03 A2992 RMK A01 T10071027  RH  087%=      5-min Rain = 0
KNOR 130935Z 25004KT M01/M03 A2992 RMK A01 T10061027  RH  086%=      5-min Rain = 0
KNOR 130940Z 25004KT M01/M03 A2992 RMK A01 T10051026  RH  086%=      5-min Rain = 0
KNOR 130945Z 25004KT M01/M03 A2992 RMK A01 T10061028  RH  086%=      5-min Rain = 0
KNOR 130950Z 24004KT M01/M03 A2992 RMK A01 T10061027  RH  086%=      5-min Rain = 0
KNOR 130955Z 24005KT M01/M03 A2991 RMK A01 T10071028  RH  086%=      5-min Rain = 0
KNOR 131000Z 24006KT M01/M03 A2991 RMK A01 T10101031  RH  086%=      5-min Rain = 0
KNOR 131005Z 25006KT M01/M03 A2992 RMK A01 T10121031  RH  087%=      5-min Rain = 0
KNOR 131010Z 25006KT M01/M03 A2991 RMK A01 T10131031  RH  088%=      5-min Rain = 0
KNOR 131015Z 25006KT M01/M03 A2992 RMK A01 T10131031  RH  088%=      5-min Rain = 0
KNOR 131020Z 24006KT M02/M03 A2991 RMK A01 T10151033  RH  088%=      5-min Rain = 0
KNOR 131025Z 25005KT M02/M03 A2991 RMK A01 T10151033  RH  088%=      5-min Rain = 0
KNOR 131030Z 25005KT M02/M03 A2991 RMK A01 T10161033  RH  089%=      5-min Rain = 0
KNOR 131035Z 25005KT M02/M03 A2991 RMK A01 T10151033  RH  088%=      5-min Rain = 0
KNOR 131040Z 25006KT M02/M04 A2992 RMK A01 T10181036  RH  088%=      5-min Rain = 0
KNOR 131045Z 25006KT M02/M04 A2991 RMK A01 T10201036  RH  089%=      5-min Rain = 0
KNOR 131050Z 25006KT M02/M04 A2991 RMK A01 T10201036  RH  090%=      5-min Rain = 0
KNOR 131055Z 26006KT M02/M04 A2992 RMK A01 T10201035  RH  090%=      5-min Rain = 0
KNOR 131100Z 26007KT M02/M04 A2992 RMK A01 T10211036  RH  090%=      5-min Rain = 0
KNOR 131105Z 26006KT M02/M04 A2992 RMK A01 T10211035  RH  090%=      5-min Rain = 0
KNOR 131110Z 26006KT M02/M03 A2991 RMK A01 T10191034  RH  090%=      5-min Rain = 0
KNOR 131115Z 25006KT M02/M03 A2991 RMK A01 T10191034  RH  090%=      5-min Rain = 0
KNOR 131120Z 26007KT M02/M03 A2991 RMK A01 T10191034  RH  090%=      5-min Rain = 0
KNOR 131125Z 25007KT M02/M03 A2991 RMK A01 T10171033  RH  089%=      5-min Rain = 0
KNOR 131130Z 24006KT M02/M03 A2991 RMK A01 T10171034  RH  089%=      5-min Rain = 0
KNOR 131135Z 25005KT M02/M03 A2991 RMK A01 T10161033  RH  089%=      5-min Rain = 0
KNOR 131140Z 26005KT M01/M03 A299 RMK A01 T10131031  RH  088%=      5-min Rain = 0
KNOR 131145Z 27005KT M01/M03 A299 RMK A01 T10081028  RH  087%=      5-min Rain = 0
KNOR 131150Z 27006KT M01/M03 A299 RMK A01 T10081030  RH  086%=      5-min Rain = 0
KNOR 131155Z 26008KT M01/M03 A2991 RMK A01 T10101031  RH  086%=      5-min Rain = 0
KNOR 131200Z 26007KT M01/M03 A2991 RMK A01 T10091030  RH  087%=      5-min Rain = 0
KNOR 131205Z 26007KT M01/M03 A299 RMK A01 T10081029  RH  086%=      5-min Rain = 0
KNOR 131210Z 25008KT M01/M03 A299 RMK A01 T10091030  RH  086%=      5-min Rain = 0
KNOR 131215Z 26008KT M01/M03 A2991 RMK A01 T10121032  RH  087%=      5-min Rain = 0
KNOR 131220Z 26008KT M01/M03 A2991 RMK A01 T10111031  RH  087%=      5-min Rain = 0
KNOR 131225Z 26008KT M01/M03 A2992 RMK A01 T10131032  RH  087%=      5-min Rain = 0
KNOR 131230Z 26008KT M01/M03 A2993 RMK A01 T10121031  RH  088%=      5-min Rain = 0
KNOR 131235Z 25007KT M01/M03 A2993 RMK A01 T10101029  RH  088%=      5-min Rain = 0
KNOR 131240Z 25007KT M01/M03 A2992 RMK A01 T10131032  RH  087%=      5-min Rain = 0
KNOR 131245Z 25008KT M02/M04 A2992 RMK A01 T10171035  RH  088%=      5-min Rain = 0
KNOR 131250Z 25007KT M02/M04 A2992 RMK A01 T10191036  RH  088%=      5-min Rain = 0
KNOR 131255Z 24007KT M02/M04 A2992 RMK A01 T10201036  RH  089%=      5-min Rain = 0
KNOR 131300Z 24008KT M02/M04 A2992 RMK A01 T10191036  RH  089%=      5-min Rain = 0
KNOR 131305Z 24008KT M02/M03 A2991 RMK A01 T10161033  RH  089%=      5-min Rain = 0
KNOR 131310Z 24007KT M02/M04 A2991 RMK A01 T10171035  RH  088%=      5-min Rain = 0
KNOR 131315Z 24007KT M02/M03 A2991 RMK A01 T10161034  RH  088%=      5-min Rain = 0
KNOR 131320Z 24007KT M02/M03 A2991 RMK A01 T10151034  RH  088%=      5-min Rain = 0
KNOR 131325Z 25007KT M01/M03 A299 RMK A01 T10141033  RH  087%=      5-min Rain = 0
KNOR 131330Z 25007KT M01/M03 A299 RMK A01 T10121033  RH  086%=      5-min Rain = 0
KNOR 131335Z 24007KT M01/M03 A2991 RMK A01 T10111033  RH  086%=      5-min Rain = 0
KNOR 131340Z 24007KT M01/M03 A2991 RMK A01 T10111033  RH  086%=      5-min Rain = 0
KNOR 131345Z 25007KT M01/M03 A2991 RMK A01 T10111032  RH  086%=      5-min Rain = 0
KNOR 131350Z 25007KT M01/M03 A2991 RMK A01 T10091030  RH  086%=      5-min Rain = 0
KNOR 131355Z 25007KT M01/M03 A2991 RMK A01 T10091030  RH  086%=      5-min Rain = 0
KNOR 131400Z 25008KT M01/M03 A2991 RMK A01 T10101030  RH  087%=      5-min Rain = 0
KNOR 131405Z 25008KT M01/M03 A2991 RMK A01 T10091029  RH  087%=      5-min Rain = 0
KNOR 131410Z 25007KT M01/M03 A2991 RMK A01 T10071028  RH  086%=      5-min Rain = 0
KNOR 131415Z 25006KT M01/M03 A2991 RMK A01 T10051028  RH  085%=      5-min Rain = 0
KNOR 131420Z 24007KT M00/M03 A2991 RMK A01 T10031026  RH  085%=      5-min Rain = 0
KNOR 131425Z 25007KT 00/M02 A2992 RMK A01 T00011023  RH  084%=      5-min Rain = 0
KNOR 131430Z 25007KT 01/M02 A2992 RMK A01 T00061021  RH  083%=      5-min Rain = 0
KNOR 131435Z 24007KT 01/M02 A2992 RMK A01 T00081020  RH  082%=      5-min Rain = 0
KNOR 131440Z 24006KT 01/M02 A2992 RMK A01 T00101018  RH  082%=      5-min Rain = 0
KNOR 131445Z 24006KT 01/M02 A2992 RMK A01 T00121016  RH  082%=      5-min Rain = 0
KNOR 131450Z 25006KT 02/M01 A2992 RMK A01 T00161013  RH  082%=      5-min Rain = 0
KNOR 131455Z 25006KT 02/M01 A2993 RMK A01 T00201010  RH  081%=      5-min Rain = 0
KNOR 131500Z 24006KT 03/M01 A2992 RMK A01 T00261008  RH  079%=      5-min Rain = 0
KNOR 131505Z 25007KT 03/M01 A2992 RMK A01 T00311006  RH  077%=      5-min Rain = 0
KNOR 131510Z 25006KT 04/M00 A2992 RMK A01 T00371003  RH  076%=      5-min Rain = 0
KNOR 131515Z 25005KT 04/M00 A2992 RMK A01 T00421001  RH  075%=      5-min Rain = 0
KNOR 131520Z 25005KT 05/00 A2993 RMK A01 T00480002  RH  073%=      5-min Rain = 0
KNOR 131525Z 26004KT 05/00 A2993 RMK A01 T00520003  RH  072%=      5-min Rain = 0
KNOR 131530Z 26004KT 06/00 A2993 RMK A01 T00550000  RH  069%=      5-min Rain = 0
KNOR 131535Z 25005KT 06/00 A2992 RMK A01 T00600001  RH  067%=      5-min Rain = 0
KNOR 131540Z 24005KT 07/00 A2992 RMK A01 T00650004  RH  066%=      5-min Rain = 0
KNOR 131545Z 24005KT 07/00 A2992 RMK A01 T00680002  RH  064%=      5-min Rain = 0
KNOR 131550Z 25005KT 07/00 A2992 RMK A01 T00740001  RH  061%=      5-min Rain = 0
KNOR 131555Z 26006KT 08/00 A2992 RMK A01 T00810001  RH  057%=      5-min Rain = 0
KNOR 131600Z 26006KT 09/M00 A2992 RMK A01 T00871001  RH  054%=      5-min Rain = 0
KNOR 131605Z 25006KT 09/M00 A2992 RMK A01 T00921003  RH  052%=      5-min Rain = 0
KNOR 131610Z 25006KT 10/00 A2992 RMK A01 T01000001  RH  051%=      5-min Rain = 0
KNOR 131615Z 25005KT 10/M00 A2992 RMK A01 T01031004  RH  048%=      5-min Rain = 0
KNOR 131620Z 24005KT 11/M01 A2991 RMK A01 T01071007  RH  045%=      5-min Rain = 0
KNOR 131625Z 25003KT 11/M01 A2991 RMK A01 T01131008  RH  044%=      5-min Rain = 0
KNOR 131630Z 25003KT 12/M01 A2991 RMK A01 T01181011  RH  041%=      5-min Rain = 0
KNOR 131635Z 26003KT 12/M01 A2991 RMK A01 T01231014  RH  039%=      5-min Rain = 0
KNOR 131640Z 29005KT 13/M02 A2991 RMK A01 T01291019  RH  036%=      5-min Rain = 0
KNOR 131645Z 28004KT 13/M02 A2991 RMK A01 T01281018  RH  037%=      5-min Rain = 0
KNOR 131650Z 27004KT 13/M01 A2991 RMK A01 T01331014  RH  037%=      5-min Rain = 0
KNOR 131655Z 28003KT 14/M02 A299 RMK A01 T01371015  RH  035%=      5-min Rain = 0
KNOR 131700Z 31003KT 14/M02 A299 RMK A01 T01381016  RH  035%=      5-min Rain = 0
KNOR 131705Z 31002G8KT 14/M02 A299 RMK A01 T01431015  RH  034%=      5-min Rain = 0
KNOR 131710Z 33004KT 15/M02 A299 RMK A01 T01481017  RH  032%=      5-min Rain = 0
KNOR 131715Z 33005KT 15/M02 A299 RMK A01 T01461016  RH  033%=      5-min Rain = 0
KNOR 131720Z 33005KT 15/M01 A299 RMK A01 T01501014  RH  033%=      5-min Rain = 0
KNOR 131725Z 32004KT 15/M02 A2989 RMK A01 T01491015  RH  033%=      5-min Rain = 0
KNOR 131730Z 30005KT 15/M02 A2989 RMK A01 T01521017  RH  032%=      5-min Rain = 0
KNOR 131735Z 30006KT 15/M02 A2989 RMK A01 T01521018  RH  031%=      5-min Rain = 0
KNOR 131740Z 33006KT 15/M02 A2988 RMK A01 T01531018  RH  031%=      5-min Rain = 0
KNOR 131745Z 31006KT 16/M02 A2988 RMK A01 T01551017  RH  031%=      5-min Rain = 0
KNOR 131750Z 30005KT 16/M02 A2988 RMK A01 T01591017  RH  030%=      5-min Rain = 0
KNOR 131755Z 30006KT 16/M02 A2988 RMK A01 T01631018  RH  029%=      5-min Rain = 0
KNOR 131800Z 31007KT 17/M02 A2988 RMK A01 T01651021  RH  028%=      5-min Rain = 0
KNOR 131805Z 31006KT 17/M02 A2987 RMK A01 T01651021  RH  028%=      5-min Rain = 0
KNOR 131810Z 31007KT 17/M02 A2987 RMK A01 T01711020  RH  027%=      5-min Rain = 0
KNOR 131815Z 32006KT 18/M02 A2987 RMK A01 T01761022  RH  026%=      5-min Rain = 0
KNOR 131820Z 32008KT 18/M03 A2986 RMK A01 T01761025  RH  025%=      5-min Rain = 0
KNOR 131825Z 32007KT 18/M02 A2986 RMK A01 T01811024  RH  025%=      5-min Rain = 0
KNOR 131830Z 35005KT 18/M03 A2985 RMK A01 T01831025  RH  024%=      5-min Rain = 0
KNOR 131835Z 01005KT 18/M03 A2985 RMK A01 T01811025  RH  025%=      5-min Rain = 0
KNOR 131840Z 34005KT 18/M02 A2985 RMK A01 T01831024  RH  025%=      5-min Rain = 0
KNOR 131845Z 31007KT 19/M03 A2984 RMK A01 T01851026  RH  024%=      5-min Rain = 0
KNOR 131850Z 31006KT 19/M03 A2984 RMK A01 T01881027  RH  023%=      5-min Rain = 0
KNOR 131855Z 32006KT 19/M03 A2984 RMK A01 T01921028  RH  022%=      5-min Rain = 0
KNOR 131900Z 33005KT 19/M03 A2983 RMK A01 T01881029  RH  023%=      5-min Rain = 0
KNOR 131905Z 33006KT 19/M03 A2983 RMK A01 T01931027  RH  023%=      5-min Rain = 0
KNOR 131910Z 32006KT 20/M03 A2983 RMK A01 T01951027  RH  022%=      5-min Rain = 0
KNOR 131915Z 00007KT 20/M03 A2983 RMK A01 T01971028  RH  022%=      5-min Rain = 0
KNOR 131920Z 34006KT 20/M03 A2983 RMK A01 T01961029  RH  022%=      5-min Rain = 0
KNOR 131925Z 35005KT 20/M03 A2982 RMK A01 T01961028  RH  022%=      5-min Rain = 0
KNOR 131930Z 34004G9KT 20/M03 A2982 RMK A01 T02001028  RH  022%=      5-min Rain = 0
KNOR 131935Z 32003KT 20/M03 A2982 RMK A01 T01951029  RH  022%=      5-min Rain = 0
KNOR 131940Z 32004KT 20/M03 A2982 RMK A01 T02021028  RH  021%=      5-min Rain = 0
KNOR 131945Z 32005G10KT 20/M03 A2982 RMK A01 T02031029  RH  021%=      5-min Rain = 0
KNOR 131950Z 36005KT 20/M03 A2982 RMK A01 T02011030  RH  021%=      5-min Rain = 0
KNOR 131955Z 35004G11KT 20/M03 A2982 RMK A01 T02031030  RH  021%=      5-min Rain = 0
KNOR 132000Z 34005G10KT 20/M03 A2982 RMK A01 T02041030  RH  021%=      5-min Rain = 0
KNOR 132005Z 33007KT 21/M03 A2983 RMK A01 T02071031  RH  020%=      5-min Rain = 0
KNOR 132010Z 35004G10KT 20/M03 A2982 RMK A01 T02031033  RH  020%=      5-min Rain = 0
KNOR 132015Z 32006G11KT 21/M04 A2982 RMK A01 T02061035  RH  020%=      5-min Rain = 0
KNOR 132020Z 32006KT 21/M04 A2981 RMK A01 T02091036  RH  019%=      5-min Rain = 0
KNOR 132025Z 34003KT 21/M04 A2981 RMK A01 T02061036  RH  019%=      5-min Rain = 0
KNOR 132030Z 32006G14KT 21/M04 A2982 RMK A01 T02081037  RH  019%=      5-min Rain = 0
KNOR 132035Z 31009KT 21/M04 A2982 RMK A01 T02101037  RH  019%=      5-min Rain = 0
KNOR 132040Z 30006KT 21/M04 A2982 RMK A01 T02111036  RH  019%=      5-min Rain = 0
KNOR 132045Z 33005KT 21/M04 A2982 RMK A01 T02091036  RH  019%=      5-min Rain = 0
KNOR 132050Z 33007KT 21/M03 A2981 RMK A01 T02091033  RH  019%=      5-min Rain = 0
KNOR 132055Z 32008G13KT 21/M03 A2981 RMK A01 T02111034  RH  019%=      5-min Rain = 0
KNOR 132100Z 31008KT 21/M03 A2982 RMK A01 T02111033  RH  019%=      5-min Rain = 0
KNOR 132105Z 32009KT 21/M03 A2981 RMK A01 T02101033  RH  019%=      5-min Rain = 0
KNOR 132110Z 32007KT 21/M03 A2981 RMK A01 T02111031  RH  020%=      5-min Rain = 0
KNOR 132115Z 32007KT 21/M03 A2982 RMK A01 T02121031  RH  019%=      5-min Rain = 0
KNOR 132120Z 30007KT 21/M03 A2982 RMK A01 T02131031  RH  019%=      5-min Rain = 0
KNOR 132125Z 30007KT 21/M03 A2982 RMK A01 T02131032  RH  019%=      5-min Rain = 0
KNOR 132130Z 30006KT 21/M03 A2981 RMK A01 T02131031  RH  019%=      5-min Rain = 0
KNOR 132135Z 28006KT 21/M03 A2982 RMK A01 T02131030  RH  019%=      5-min Rain = 0
KNOR 132140Z 29005KT 21/M03 A2981 RMK A01 T02121030  RH  020%=      5-min Rain = 0
KNOR 132145Z 30004G9KT 21/M03 A2981 RMK A01 T02131031  RH  019%=      5-min Rain = 0
KNOR 132150Z 32007KT 21/M04 A2982 RMK A01 T02131039  RH  018%=      5-min Rain = 0
KNOR 132155Z 34007KT 21/M04 A2982 RMK A01 T02131040  RH  018%=      5-min Rain = 0
KNOR 132200Z 34008KT 21/M04 A2981 RMK A01 T02121040  RH  018%=      5-min Rain = 0
KNOR 132205Z 34008KT 21/M04 A2981 RMK A01 T02121042  RH  018%=      5-min Rain = 0
KNOR 132210Z 36010G15KT 21/M05 A2981 RMK A01 T02101045  RH  018%=      5-min Rain = 0
KNOR 132215Z 35009KT 21/M05 A2981 RMK A01 T02081046  RH  018%=      5-min Rain = 0
KNOR 132220Z 35010KT 21/M05 A2981 RMK A01 T02061047  RH  018%=      5-min Rain = 0
KNOR 132225Z 35009KT 20/M05 A2981 RMK A01 T02041046  RH  018%=      5-min Rain = 0
KNOR 132230Z 35007KT 20/M04 A2981 RMK A01 T02031044  RH  019%=      5-min Rain = 0
KNOR 132235Z 35007KT 20/M04 A2982 RMK A01 T02011044  RH  019%=      5-min Rain = 0
KNOR 132240Z 35007KT 20/M04 A2982 RMK A01 T01991044  RH  019%=      5-min Rain = 0
KNOR 132245Z 35007KT 20/M04 A2982 RMK A01 T01961043  RH  020%=      5-min Rain = 0
KNOR 132250Z 35005KT 19/M04 A2982 RMK A01 T01931043  RH  020%=      5-min Rain = 0
KNOR 132255Z 00007KT 19/M04 A2982 RMK A01 T01911043  RH  020%=      5-min Rain = 0
KNOR 132300Z 36006KT 19/M04 A2983 RMK A01 T01871043  RH  021%=      5-min Rain = 0
KNOR 132305Z 36005KT 18/M04 A2983 RMK A01 T01841043  RH  021%=      5-min Rain = 0
KNOR 132310Z 36004KT 18/M04 A2984 RMK A01 T01801044  RH  022%=      5-min Rain = 0
KNOR 132315Z 36005KT 18/M04 A2984 RMK A01 T01751044  RH  022%=      5-min Rain = 0
KNOR 132320Z 00005KT 17/M04 A2983 RMK A01 T01721044  RH  023%=      5-min Rain = 0
KNOR 132325Z 01005KT 17/M04 A2983 RMK A01 T01661043  RH  024%=      5-min Rain = 0
KNOR 132330Z 03004KT 17/M04 A2983 RMK A01 T01651043  RH  024%=      5-min Rain = 0
KNOR 132335Z 04004KT 16/M04 A2983 RMK A01 T01641043  RH  024%=      5-min Rain = 0
KNOR 132340Z 06003KT 16/M04 A2983 RMK A01 T01641043  RH  024%=      5-min Rain = 0
KNOR 132345Z 06003KT 17/M04 A2983 RMK A01 T01661042  RH  024%=      5-min Rain = 0
KNOR 132350Z 06004KT 16/M04 A2983 RMK A01 T01641041  RH  024%=      5-min Rain = 0
KNOR 132355Z 05005KT 16/M04 A2983 RMK A01 T01581041  RH  025%=      5-min Rain = 0
KNOR 140000Z 05005KT 16/M04 A2984 RMK A01 T01571041  RH  025%=      5-min Rain = 0
KNOR 140005Z 06005KT 15/M04 A2984 RMK A01 T01541042  RH  026%=      5-min Rain = 0
KNOR 140010Z 06005KT 15/M04 A2984 RMK A01 T01511042  RH  026%=      5-min Rain = 0
KNOR 140015Z 06005KT 15/M04 A2984 RMK A01 T01501041  RH  026%=      5-min Rain = 0
KNOR 140020Z 05005KT 15/M04 A2984 RMK A01 T01521042  RH  026%=      5-min Rain = 0
KNOR 140025Z 05006KT 15/M04 A2984 RMK A01 T01491043  RH  026%=      5-min Rain = 0
KNOR 140030Z 05006KT 15/M04 A2984 RMK A01 T01461044  RH  027%=      5-min Rain = 0
KNOR 140035Z 05005KT 15/M04 A2985 RMK A01 T01471044  RH  026%=      5-min Rain = 0
KNOR 140040Z 05006KT 15/M05 A2985 RMK A01 T01481045  RH  026%=      5-min Rain = 0
KNOR 140045Z 05006KT 15/M05 A2985 RMK A01 T01451045  RH  027%=      5-min Rain = 0
KNOR 140050Z 04006KT 14/M05 A2985 RMK A01 T01431046  RH  027%=      5-min Rain = 0
KNOR 140055Z 05006KT 14/M05 A2985 RMK A01 T01401046  RH  027%=      5-min Rain = 0
KNOR 140100Z 05005KT 14/M05 A2985 RMK A01 T01411047  RH  027%=      5-min Rain = 0
KNOR 140105Z 05005KT 14/M05 A2985 RMK A01 T01421048  RH  027%=      5-min Rain = 0
KNOR 140110Z 06005KT 14/M05 A2985 RMK A01 T01421048  RH  027%=      5-min Rain = 0
KNOR 140115Z 07005KT 14/M05 A2985 RMK A01 T01421048  RH  026%=      5-min Rain = 0
KNOR 140120Z 07004KT 14/M05 A2985 RMK A01 T01431049  RH  026%=      5-min Rain = 0
KNOR 140125Z 08004KT 14/M05 A2985 RMK A01 T01441049  RH  026%=      5-min Rain = 0
KNOR 140130Z 08004KT 14/M05 A2986 RMK A01 T01431049  RH  026%=      5-min Rain = 0
KNOR 140135Z 07004KT 14/M05 A2986 RMK A01 T01421049  RH  026%=      5-min Rain = 0
KNOR 140140Z 06005KT 14/M05 A2986 RMK A01 T01351048  RH  028%=      5-min Rain = 0
KNOR 140145Z 06005KT 13/M05 A2986 RMK A01 T01331048  RH  028%=      5-min Rain = 0
KNOR 140150Z 07004KT 13/M05 A2986 RMK A01 T01341048  RH  028%=      5-min Rain = 0
KNOR 140155Z 07004KT 14/M05 A2987 RMK A01 T01381049  RH  027%=      5-min Rain = 0
KNOR 140200Z 07005KT 14/M05 A2987 RMK A01 T01381049  RH  027%=      5-min Rain = 0
KNOR 140205Z 06004KT 14/M05 A2987 RMK A01 T01351049  RH  028%=      5-min Rain = 0
KNOR 140210Z 05003KT 14/M05 A2988 RMK A01 T01361049  RH  027%=      5-min Rain = 0
KNOR 140215Z 02003KT 13/M05 A2988 RMK A01 T01291048  RH  029%=      5-min Rain = 0
KNOR 140220Z 32002KT 12/M05 A2988 RMK A01 T01191048  RH  031%=      5-min Rain = 0
KNOR 140225Z 24001KT 10/M05 A2988 RMK A01 T00951050  RH  036%=      5-min Rain = 0
KNOR 140230Z 32000KT 10/M05 A2988 RMK A01 T00951045  RH  037%=      5-min Rain = 0
KNOR 140235Z 30001KT 10/M05 A2988 RMK A01 T01021046  RH  035%=      5-min Rain = 0
KNOR 140240Z 28002KT 11/M05 A2988 RMK A01 T01081045  RH  034%=      5-min Rain = 0
KNOR 140245Z 24003KT 10/M05 A2989 RMK A01 T01021046  RH  035%=      5-min Rain = 0
KNOR 140250Z 25004KT 10/M05 A2989 RMK A01 T00971045  RH  037%=      5-min Rain = 0
KNOR 140255Z 25003KT 10/M04 A2989 RMK A01 T00971044  RH  037%=      5-min Rain = 0
KNOR 140300Z 28001KT 10/M04 A2989 RMK A01 T00951043  RH  038%=      5-min Rain = 0
KNOR 140305Z 28001KT 09/M04 A2988 RMK A01 T00931043  RH  038%=      5-min Rain = 0
KNOR 140310Z 27004KT 09/M04 A2989 RMK A01 T00921041  RH  039%=      5-min Rain = 0
KNOR 140315Z 26005KT 08/M04 A2989 RMK A01 T00821038  RH  043%=      5-min Rain = 0
KNOR 140320Z 26004KT 08/M04 A2989 RMK A01 T00781037  RH  044%=      5-min Rain = 0
KNOR 140325Z 27003KT 08/M04 A299 RMK A01 T00771035  RH  045%=      5-min Rain = 0
KNOR 140330Z 26005KT 08/M04 A299 RMK A01 T00761035  RH  046%=      5-min Rain = 0
KNOR 140335Z 28004KT 07/M03 A299 RMK A01 T00731034  RH  047%=      5-min Rain = 0
KNOR 140340Z 32004KT 08/M04 A299 RMK A01 T00771036  RH  045%=      5-min Rain = 0
KNOR 140345Z 31004KT 07/M04 A2991 RMK A01 T00741037  RH  045%=      5-min Rain = 0
KNOR 140350Z 28003KT 07/M04 A2991 RMK A01 T00691037  RH  047%=      5-min Rain = 0
KNOR 140355Z 30004KT 06/M04 A2991 RMK A01 T00641037  RH  048%=      5-min Rain = 0
KNOR 140400Z 32005KT 07/M04 A2992 RMK A01 T00651038  RH  048%=      5-min Rain = 0
KNOR 140405Z 32004KT 07/M04 A2992 RMK A01 T00671038  RH  047%=      5-min Rain = 0
KNOR 140410Z 32004KT 07/M04 A2992 RMK A01 T00691039  RH  046%=      5-min Rain = 0
KNOR 140415Z 31003KT 07/M04 A2992 RMK A01 T00681038  RH  047%=      5-min Rain = 0
KNOR 140420Z 28003KT 06/M04 A2993 RMK A01 T00611038  RH  049%=      5-min Rain = 0
KNOR 140425Z 25003KT 05/M04 A2993 RMK A01 T00521037  RH  053%=      5-min Rain = 0
KNOR 140430Z 29003KT 05/M04 A2993 RMK A01 T00521036  RH  053%=      5-min Rain = 0
KNOR 140435Z 31003KT 06/M04 A2992 RMK A01 T00591036  RH  051%=      5-min Rain = 0
KNOR 140440Z 31003KT 06/M04 A2992 RMK A01 T00631037  RH  049%=      5-min Rain = 0
KNOR 140445Z 31003KT 07/M04 A2992 RMK A01 T00671037  RH  047%=      5-min Rain = 0
KNOR 140450Z 32004KT 07/M04 A2992 RMK A01 T00671038  RH  047%=      5-min Rain = 0
KNOR 140455Z 32004KT 07/M04 A2992 RMK A01 T00701038  RH  046%=      5-min Rain = 0
KNOR 140500Z 33005KT 07/M04 A2992 RMK A01 T00731039  RH  045%=      5-min Rain = 0
KNOR 140505Z 34004KT 07/M04 A2991 RMK A01 T00721039  RH  045%=      5-min Rain = 0
KNOR 140510Z 32005KT 07/M04 A2992 RMK A01 T00701039  RH  046%=      5-min Rain = 0
KNOR 140515Z 33005KT 06/M04 A2991 RMK A01 T00601038  RH  050%=      5-min Rain = 0
KNOR 140520Z 34006KT 06/M04 A2991 RMK A01 T00571038  RH  051%=      5-min Rain = 0
KNOR 140525Z 34007KT 05/M04 A2991 RMK A01 T00521036  RH  053%=      5-min Rain = 0
KNOR 140530Z 34007KT 05/M04 A2991 RMK A01 T00481036  RH  055%=      5-min Rain = 0
KNOR 140535Z 34008KT 05/M04 A2991 RMK A01 T00471035  RH  056%=      5-min Rain = 0
KNOR 140540Z 34007KT 05/M03 A2992 RMK A01 T00451034  RH  057%=      5-min Rain = 0
KNOR 140545Z 33008KT 04/M04 A2992 RMK A01 T00411035  RH  058%=      5-min Rain = 0
KNOR 140550Z 33007KT 04/M04 A2992 RMK A01 T00411035  RH  058%=      5-min Rain = 0
KNOR 140555Z 33007KT 04/M04 A2992 RMK A01 T00411036  RH  058%=      5-min Rain = 0

Page generated in 0.0132 seconds.